sensor_id;sensor_type;location;lat;lon;timestamp;temperature;humidity
10192;DHT22;17580;50.850;4.504;2023-03-01T00:01:39;0.90;29.40
10192;DHT22;17580;50.850;4.504;2023-03-01T00:04:06;1.00;30.50
10192;DHT22;17580;50.850;4.504;2023-03-01T00:06:33;1.00;30.40
10192;DHT22;17580;50.850;4.504;2023-03-01T00:09:00;1.10;31.80
10192;DHT22;17580;50.850;4.504;2023-03-01T00:11:29;0.90;30.50
10192;DHT22;17580;50.850;4.504;2023-03-01T00:13:59;0.90;31.60
10192;DHT22;17580;50.850;4.504;2023-03-01T00:16:28;0.90;32.40
10192;DHT22;17580;50.850;4.504;2023-03-01T00:18:57;0.80;31.60
10192;DHT22;17580;50.850;4.504;2023-03-01T00:21:24;0.80;31.40
10192;DHT22;17580;50.850;4.504;2023-03-01T00:23:52;0.80;31.50
10192;DHT22;17580;50.850;4.504;2023-03-01T00:26:21;0.60;31.70
10192;DHT22;17580;50.850;4.504;2023-03-01T00:28:49;0.70;32.60
10192;DHT22;17580;50.850;4.504;2023-03-01T00:31:19;0.80;31.60
10192;DHT22;17580;50.850;4.504;2023-03-01T00:33:47;0.70;31.00
10192;DHT22;17580;50.850;4.504;2023-03-01T00:36:15;0.70;32.90
10192;DHT22;17580;50.850;4.504;2023-03-01T00:38:44;0.60;34.10
10192;DHT22;17580;50.850;4.504;2023-03-01T00:41:13;0.70;34.60
10192;DHT22;17580;50.850;4.504;2023-03-01T00:43:41;0.60;34.60
10192;DHT22;17580;50.850;4.504;2023-03-01T00:46:09;0.60;35.50
10192;DHT22;17580;50.850;4.504;2023-03-01T00:48:38;0.50;35.10
10192;DHT22;17580;50.850;4.504;2023-03-01T00:51:06;0.70;35.80
10192;DHT22;17580;50.850;4.504;2023-03-01T00:53:34;0.50;34.10
10192;DHT22;17580;50.850;4.504;2023-03-01T00:56:01;0.60;34.50
10192;DHT22;17580;50.850;4.504;2023-03-01T00:58:28;0.50;35.50
10192;DHT22;17580;50.850;4.504;2023-03-01T01:00:55;0.40;36.30
10192;DHT22;17580;50.850;4.504;2023-03-01T01:03:23;0.40;36.60
10192;DHT22;17580;50.850;4.504;2023-03-01T01:05:52;0.50;37.10
10192;DHT22;17580;50.850;4.504;2023-03-01T01:08:20;0.50;37.10
10192;DHT22;17580;50.850;4.504;2023-03-01T01:10:47;0.30;37.70
10192;DHT22;17580;50.850;4.504;2023-03-01T01:13:14;0.30;36.90
10192;DHT22;17580;50.850;4.504;2023-03-01T01:15:41;0.40;38.30
10192;DHT22;17580;50.850;4.504;2023-03-01T01:18:08;0.30;38.50
10192;DHT22;17580;50.850;4.504;2023-03-01T01:20:36;0.20;38.30
10192;DHT22;17580;50.850;4.504;2023-03-01T01:23:06;0.40;38.40
10192;DHT22;17580;50.850;4.504;2023-03-01T01:25:35;0.40;39.50
10192;DHT22;17580;50.850;4.504;2023-03-01T01:28:03;0.30;39.10
10192;DHT22;17580;50.850;4.504;2023-03-01T01:30:30;0.20;39.30
10192;DHT22;17580;50.850;4.504;2023-03-01T01:32:57;0.40;40.30
10192;DHT22;17580;50.850;4.504;2023-03-01T01:35:24;0.40;40.70
10192;DHT22;17580;50.850;4.504;2023-03-01T01:37:51;0.40;40.50
10192;DHT22;17580;50.850;4.504;2023-03-01T01:40:19;0.40;41.00
10192;DHT22;17580;50.850;4.504;2023-03-01T01:42:46;0.20;40.80
10192;DHT22;17580;50.850;4.504;2023-03-01T01:45:35;0.40;41.50
10192;DHT22;17580;50.850;4.504;2023-03-01T01:48:04;0.30;41.30
10192;DHT22;17580;50.850;4.504;2023-03-01T01:50:34;0.20;40.80
10192;DHT22;17580;50.850;4.504;2023-03-01T01:53:08;0.30;40.70
10192;DHT22;17580;50.850;4.504;2023-03-01T01:55:40;0.40;41.00
10192;DHT22;17580;50.850;4.504;2023-03-01T01:58:09;0.40;41.50
10192;DHT22;17580;50.850;4.504;2023-03-01T02:00:38;0.40;41.30
10192;DHT22;17580;50.850;4.504;2023-03-01T02:03:08;0.50;40.30
10192;DHT22;17580;50.850;4.504;2023-03-01T02:05:39;0.40;40.30
10192;DHT22;17580;50.850;4.504;2023-03-01T02:08:11;0.30;40.30
10192;DHT22;17580;50.850;4.504;2023-03-01T02:10:41;0.40;39.60
10192;DHT22;17580;50.850;4.504;2023-03-01T02:13:08;0.30;40.00
10192;DHT22;17580;50.850;4.504;2023-03-01T02:15:38;0.40;40.30
10192;DHT22;17580;50.850;4.504;2023-03-01T02:18:07;0.40;40.20
10192;DHT22;17580;50.850;4.504;2023-03-01T02:20:40;0.50;40.40
10192;DHT22;17580;50.850;4.504;2023-03-01T02:23:12;0.30;40.90
10192;DHT22;17580;50.850;4.504;2023-03-01T02:25:46;0.40;40.50
10192;DHT22;17580;50.850;4.504;2023-03-01T02:28:29;0.40;40.10
10192;DHT22;17580;50.850;4.504;2023-03-01T02:30:56;0.30;40.60
10192;DHT22;17580;50.850;4.504;2023-03-01T02:33:41;0.40;40.80
10192;DHT22;17580;50.850;4.504;2023-03-01T02:36:12;0.40;42.60
10192;DHT22;17580;50.850;4.504;2023-03-01T02:38:41;0.30;42.20
10192;DHT22;17580;50.850;4.504;2023-03-01T02:41:09;0.20;42.30
10192;DHT22;17580;50.850;4.504;2023-03-01T02:43:38;0.20;41.70
10192;DHT22;17580;50.850;4.504;2023-03-01T02:46:06;0.20;42.00
10192;DHT22;17580;50.850;4.504;2023-03-01T02:48:42;0.10;42.30
10192;DHT22;17580;50.850;4.504;2023-03-01T02:51:18;0.00;43.00
10192;DHT22;17580;50.850;4.504;2023-03-01T02:53:58;0.00;43.50
10192;DHT22;17580;50.850;4.504;2023-03-01T02:56:28;0.10;43.50
10192;DHT22;17580;50.850;4.504;2023-03-01T02:58:58;0.10;44.10
10192;DHT22;17580;50.850;4.504;2023-03-01T03:01:27;0.10;44.60
10192;DHT22;17580;50.850;4.504;2023-03-01T03:04:02;0.10;44.80
10192;DHT22;17580;50.850;4.504;2023-03-01T03:06:30;0.10;44.10
10192;DHT22;17580;50.850;4.504;2023-03-01T03:08:57;-0.10;45.10
10192;DHT22;17580;50.850;4.504;2023-03-01T03:11:24;-0.10;45.40
10192;DHT22;17580;50.850;4.504;2023-03-01T03:13:51;-0.10;45.80
10192;DHT22;17580;50.850;4.504;2023-03-01T03:16:20;-0.10;46.00
10192;DHT22;17580;50.850;4.504;2023-03-01T03:18:48;-0.10;45.80
10192;DHT22;17580;50.850;4.504;2023-03-01T03:21:15;-0.20;46.70
10192;DHT22;17580;50.850;4.504;2023-03-01T03:23:43;-0.20;47.50
10192;DHT22;17580;50.850;4.504;2023-03-01T03:26:10;-0.10;47.90
10192;DHT22;17580;50.850;4.504;2023-03-01T03:28:39;-0.20;47.60
10192;DHT22;17580;50.850;4.504;2023-03-01T03:31:07;-0.20;48.20
10192;DHT22;17580;50.850;4.504;2023-03-01T03:33:36;-0.20;47.80
10192;DHT22;17580;50.850;4.504;2023-03-01T03:36:04;-0.20;47.90
10192;DHT22;17580;50.850;4.504;2023-03-01T03:38:31;-0.30;47.90
10192;DHT22;17580;50.850;4.504;2023-03-01T03:41:04;-0.20;47.50
10192;DHT22;17580;50.850;4.504;2023-03-01T03:43:33;-0.10;47.50
10192;DHT22;17580;50.850;4.504;2023-03-01T03:46:01;-0.10;47.30
10192;DHT22;17580;50.850;4.504;2023-03-01T03:48:31;-0.30;47.50
10192;DHT22;17580;50.850;4.504;2023-03-01T03:51:01;-0.20;48.00
10192;DHT22;17580;50.850;4.504;2023-03-01T03:53:31;-0.30;47.60
10192;DHT22;17580;50.850;4.504;2023-03-01T03:55:58;-0.10;46.70
10192;DHT22;17580;50.850;4.504;2023-03-01T03:58:25;-0.30;47.30
10192;DHT22;17580;50.850;4.504;2023-03-01T04:00:54;-0.20;47.60
10192;DHT22;17580;50.850;4.504;2023-03-01T04:03:23;-0.20;48.00
10192;DHT22;17580;50.850;4.504;2023-03-01T04:05:51;-0.20;47.70
10192;DHT22;17580;50.850;4.504;2023-03-01T04:08:20;-0.20;48.30
10192;DHT22;17580;50.850;4.504;2023-03-01T04:10:49;-0.20;48.20
10192;DHT22;17580;50.850;4.504;2023-03-01T04:13:18;-0.40;48.20
10192;DHT22;17580;50.850;4.504;2023-03-01T04:15:46;-0.20;48.70
10192;DHT22;17580;50.850;4.504;2023-03-01T04:18:14;-0.30;48.40
10192;DHT22;17580;50.850;4.504;2023-03-01T04:20:42;-0.30;49.80
10192;DHT22;17580;50.850;4.504;2023-03-01T04:23:12;-0.30;50.20
10192;DHT22;17580;50.850;4.504;2023-03-01T04:25:46;-0.40;50.00
10192;DHT22;17580;50.850;4.504;2023-03-01T04:28:15;-0.30;50.20
10192;DHT22;17580;50.850;4.504;2023-03-01T04:30:42;-0.40;51.70
10192;DHT22;17580;50.850;4.504;2023-03-01T04:33:09;-0.50;51.60
10192;DHT22;17580;50.850;4.504;2023-03-01T04:35:37;-0.40;52.40
10192;DHT22;17580;50.850;4.504;2023-03-01T04:38:06;-0.40;52.90
10192;DHT22;17580;50.850;4.504;2023-03-01T04:40:33;-0.40;52.90
10192;DHT22;17580;50.850;4.504;2023-03-01T04:43:02;-0.70;52.50
10192;DHT22;17580;50.850;4.504;2023-03-01T04:45:31;-0.50;52.50
10192;DHT22;17580;50.850;4.504;2023-03-01T04:48:00;-0.60;52.40
10192;DHT22;17580;50.850;4.504;2023-03-01T04:50:27;-0.70;53.00
10192;DHT22;17580;50.850;4.504;2023-03-01T04:52:54;-0.70;52.80
10192;DHT22;17580;50.850;4.504;2023-03-01T04:55:24;-0.70;52.80
10192;DHT22;17580;50.850;4.504;2023-03-01T04:57:51;-0.60;52.20
10192;DHT22;17580;50.850;4.504;2023-03-01T05:00:21;-0.50;52.20
10192;DHT22;17580;50.850;4.504;2023-03-01T05:02:50;-0.60;52.70
10192;DHT22;17580;50.850;4.504;2023-03-01T05:05:24;-0.60;52.70
10192;DHT22;17580;50.850;4.504;2023-03-01T05:07:53;-0.50;52.40
10192;DHT22;17580;50.850;4.504;2023-03-01T05:10:20;-0.50;52.60
10192;DHT22;17580;50.850;4.504;2023-03-01T05:12:47;-0.70;52.60
10192;DHT22;17580;50.850;4.504;2023-03-01T05:15:15;-0.60;52.50
10192;DHT22;17580;50.850;4.504;2023-03-01T05:17:43;-0.70;52.50
10192;DHT22;17580;50.850;4.504;2023-03-01T05:20:12;-0.60;52.80
10192;DHT22;17580;50.850;4.504;2023-03-01T05:22:39;-0.70;52.30
10192;DHT22;17580;50.850;4.504;2023-03-01T05:25:06;-0.60;52.30
10192;DHT22;17580;50.850;4.504;2023-03-01T05:27:34;-0.70;53.70
10192;DHT22;17580;50.850;4.504;2023-03-01T05:30:01;-0.70;54.20
10192;DHT22;17580;50.850;4.504;2023-03-01T05:32:40;-0.80;53.70
10192;DHT22;17580;50.850;4.504;2023-03-01T05:35:11;-0.60;53.90
10192;DHT22;17580;50.850;4.504;2023-03-01T05:37:41;-0.70;54.30
10192;DHT22;17580;50.850;4.504;2023-03-01T05:40:10;-0.70;54.10
10192;DHT22;17580;50.850;4.504;2023-03-01T05:42:44;-0.80;54.00
10192;DHT22;17580;50.850;4.504;2023-03-01T05:45:12;-0.80;54.40
10192;DHT22;17580;50.850;4.504;2023-03-01T05:47:39;-0.60;54.30
10192;DHT22;17580;50.850;4.504;2023-03-01T05:50:13;-0.60;54.40
10192;DHT22;17580;50.850;4.504;2023-03-01T05:52:44;-0.70;54.80
10192;DHT22;17580;50.850;4.504;2023-03-01T05:55:11;-0.70;54.80
10192;DHT22;17580;50.850;4.504;2023-03-01T05:57:38;-0.80;55.30
10192;DHT22;17580;50.850;4.504;2023-03-01T06:00:07;-0.80;54.70
10192;DHT22;17580;50.850;4.504;2023-03-01T06:02:34;-0.70;54.80
10192;DHT22;17580;50.850;4.504;2023-03-01T06:05:01;-0.60;55.30
10192;DHT22;17580;50.850;4.504;2023-03-01T06:07:31;-0.70;55.30
10192;DHT22;17580;50.850;4.504;2023-03-01T06:09:58;-0.80;55.40
10192;DHT22;17580;50.850;4.504;2023-03-01T06:12:25;-0.80;55.40
10192;DHT22;17580;50.850;4.504;2023-03-01T06:14:52;-0.80;55.80
10192;DHT22;17580;50.850;4.504;2023-03-01T06:17:19;-0.70;56.10
10192;DHT22;17580;50.850;4.504;2023-03-01T06:19:46;-0.90;55.60
10192;DHT22;17580;50.850;4.504;2023-03-01T06:22:13;-0.70;56.30
10192;DHT22;17580;50.850;4.504;2023-03-01T06:24:42;-0.70;55.80
10192;DHT22;17580;50.850;4.504;2023-03-01T06:27:09;-0.70;55.70
10192;DHT22;17580;50.850;4.504;2023-03-01T06:29:36;-1.00;54.40
10192;DHT22;17580;50.850;4.504;2023-03-01T06:32:03;-0.80;53.90
10192;DHT22;17580;50.850;4.504;2023-03-01T06:34:31;-0.70;53.60
10192;DHT22;17580;50.850;4.504;2023-03-01T06:36:58;-0.80;53.70
10192;DHT22;17580;50.850;4.504;2023-03-01T06:39:27;-0.80;53.70
10192;DHT22;17580;50.850;4.504;2023-03-01T06:41:56;-0.70;53.10
10192;DHT22;17580;50.850;4.504;2023-03-01T06:44:23;-0.70;53.30
10192;DHT22;17580;50.850;4.504;2023-03-01T06:46:50;-1.00;53.30
10192;DHT22;17580;50.850;4.504;2023-03-01T06:49:17;-0.80;54.30
10192;DHT22;17580;50.850;4.504;2023-03-01T06:51:45;-0.80;55.40
10192;DHT22;17580;50.850;4.504;2023-03-01T06:54:12;-1.00;54.60
10192;DHT22;17580;50.850;4.504;2023-03-01T06:56:39;-0.70;54.90
10192;DHT22;17580;50.850;4.504;2023-03-01T06:59:08;-0.80;54.80
10192;DHT22;17580;50.850;4.504;2023-03-01T07:01:35;-0.50;55.00
10192;DHT22;17580;50.850;4.504;2023-03-01T07:04:02;-0.60;54.20
10192;DHT22;17580;50.850;4.504;2023-03-01T07:06:29;-0.50;54.70
10192;DHT22;17580;50.850;4.504;2023-03-01T07:08:56;-0.40;54.30
10192;DHT22;17580;50.850;4.504;2023-03-01T07:11:24;-0.40;53.80
10192;DHT22;17580;50.850;4.504;2023-03-01T07:13:51;-0.30;53.10
10192;DHT22;17580;50.850;4.504;2023-03-01T07:16:19;-0.20;53.50
10192;DHT22;17580;50.850;4.504;2023-03-01T07:18:47;-0.40;53.70
10192;DHT22;17580;50.850;4.504;2023-03-01T07:21:14;-0.30;54.10
10192;DHT22;17580;50.850;4.504;2023-03-01T07:23:42;-0.30;53.20
10192;DHT22;17580;50.850;4.504;2023-03-01T07:26:09;-0.20;52.50
10192;DHT22;17580;50.850;4.504;2023-03-01T07:28:36;-0.20;52.60
10192;DHT22;17580;50.850;4.504;2023-03-01T07:31:05;0.00;52.60
10192;DHT22;17580;50.850;4.504;2023-03-01T07:33:34;0.10;52.20
10192;DHT22;17580;50.850;4.504;2023-03-01T07:36:02;0.20;52.90
10192;DHT22;17580;50.850;4.504;2023-03-01T07:38:29;0.20;52.20
10192;DHT22;17580;50.850;4.504;2023-03-01T07:40:58;0.30;52.50
10192;DHT22;17580;50.850;4.504;2023-03-01T07:43:25;0.30;51.60
10192;DHT22;17580;50.850;4.504;2023-03-01T07:45:52;0.40;51.30
10192;DHT22;17580;50.850;4.504;2023-03-01T07:48:19;0.50;52.70
10192;DHT22;17580;50.850;4.504;2023-03-01T07:50:48;0.70;51.20
10192;DHT22;17580;50.850;4.504;2023-03-01T07:53:15;0.90;50.50
10192;DHT22;17580;50.850;4.504;2023-03-01T07:55:42;0.90;49.60
10192;DHT22;17580;50.850;4.504;2023-03-01T07:58:09;1.30;49.00
10192;DHT22;17580;50.850;4.504;2023-03-01T08:00:36;1.60;48.40
10192;DHT22;17580;50.850;4.504;2023-03-01T08:03:03;1.90;46.20
10192;DHT22;17580;50.850;4.504;2023-03-01T08:05:30;2.00;44.40
10192;DHT22;17580;50.850;4.504;2023-03-01T08:07:58;1.60;45.20
10192;DHT22;17580;50.850;4.504;2023-03-01T08:10:25;1.60;44.70
10192;DHT22;17580;50.850;4.504;2023-03-01T08:12:52;1.80;45.10
10192;DHT22;17580;50.850;4.504;2023-03-01T08:15:19;2.10;45.00
10192;DHT22;17580;50.850;4.504;2023-03-01T08:17:49;2.50;42.40
10192;DHT22;17580;50.850;4.504;2023-03-01T08:20:16;2.50;43.10
10192;DHT22;17580;50.850;4.504;2023-03-01T08:22:43;2.30;42.30
10192;DHT22;17580;50.850;4.504;2023-03-01T08:25:12;2.30;43.20
10192;DHT22;17580;50.850;4.504;2023-03-01T08:27:39;2.70;42.70
10192;DHT22;17580;50.850;4.504;2023-03-01T08:30:07;2.80;40.90
10192;DHT22;17580;50.850;4.504;2023-03-01T08:32:38;3.20;40.70
10192;DHT22;17580;50.850;4.504;2023-03-01T08:35:06;3.60;39.40
10192;DHT22;17580;50.850;4.504;2023-03-01T08:37:33;3.90;39.00
10192;DHT22;17580;50.850;4.504;2023-03-01T08:40:00;4.20;36.70
10192;DHT22;17580;50.850;4.504;2023-03-01T08:42:30;4.90;35.70
10192;DHT22;17580;50.850;4.504;2023-03-01T08:44:57;5.50;34.60
10192;DHT22;17580;50.850;4.504;2023-03-01T08:47:24;6.20;31.30
10192;DHT22;17580;50.850;4.504;2023-03-01T08:49:51;7.00;29.40
10192;DHT22;17580;50.850;4.504;2023-03-01T08:52:19;7.90;26.30
10192;DHT22;17580;50.850;4.504;2023-03-01T08:54:47;8.90;25.00
10192;DHT22;17580;50.850;4.504;2023-03-01T08:57:14;9.30;21.30
10192;DHT22;17580;50.850;4.504;2023-03-01T08:59:43;10.10;18.90
10192;DHT22;17580;50.850;4.504;2023-03-01T09:02:12;10.80;15.80
10192;DHT22;17580;50.850;4.504;2023-03-01T09:04:39;11.40;15.40
10192;DHT22;17580;50.850;4.504;2023-03-01T09:07:07;11.60;12.10
10192;DHT22;17580;50.850;4.504;2023-03-01T09:09:34;11.80;11.60
10192;DHT22;17580;50.850;4.504;2023-03-01T09:12:02;11.70;10.80
10192;DHT22;17580;50.850;4.504;2023-03-01T09:14:30;12.00;9.80
10192;DHT22;17580;50.850;4.504;2023-03-01T09:16:58;12.10;8.70
10192;DHT22;17580;50.850;4.504;2023-03-01T09:19:28;12.80;7.50
10192;DHT22;17580;50.850;4.504;2023-03-01T09:21:55;13.00;6.70
10192;DHT22;17580;50.850;4.504;2023-03-01T09:24:24;13.50;5.60
10192;DHT22;17580;50.850;4.504;2023-03-01T09:26:53;14.10;2.80
10192;DHT22;17580;50.850;4.504;2023-03-01T09:29:21;14.30;1.80
10192;DHT22;17580;50.850;4.504;2023-03-01T09:31:49;13.90;1.80
10192;DHT22;17580;50.850;4.504;2023-03-01T09:34:17;13.80;1.40
10192;DHT22;17580;50.850;4.504;2023-03-01T09:36:49;13.90;1.40
10192;DHT22;17580;50.850;4.504;2023-03-01T09:39:16;13.70;1.70
10192;DHT22;17580;50.850;4.504;2023-03-01T09:41:47;13.90;1.00
10192;DHT22;17580;50.850;4.504;2023-03-01T09:44:24;14.80;1.00
10192;DHT22;17580;50.850;4.504;2023-03-01T09:46:54;14.50;1.00
10192;DHT22;17580;50.850;4.504;2023-03-01T09:49:26;15.00;1.00
10192;DHT22;17580;50.850;4.504;2023-03-01T09:52:00;15.20;1.00
10192;DHT22;17580;50.850;4.504;2023-03-01T09:54:28;15.30;1.00
10192;DHT22;17580;50.850;4.504;2023-03-01T09:57:05;15.00;1.00
10192;DHT22;17580;50.850;4.504;2023-03-01T09:59:40;14.90;1.00
10192;DHT22;17580;50.850;4.504;2023-03-01T10:02:24;15.20;1.00
10192;DHT22;17580;50.850;4.504;2023-03-01T10:04:56;14.30;1.00
10192;DHT22;17580;50.850;4.504;2023-03-01T10:07:31;15.10;1.00
10192;DHT22;17580;50.850;4.504;2023-03-01T10:09:59;15.80;1.00
10192;DHT22;17580;50.850;4.504;2023-03-01T10:12:34;15.80;1.00
10192;DHT22;17580;50.850;4.504;2023-03-01T10:15:05;16.00;1.00
10192;DHT22;17580;50.850;4.504;2023-03-01T10:17:38;15.30;1.00
10192;DHT22;17580;50.850;4.504;2023-03-01T10:20:16;15.60;1.00
10192;DHT22;17580;50.850;4.504;2023-03-01T10:22:44;15.70;1.00
10192;DHT22;17580;50.850;4.504;2023-03-01T10:25:20;15.60;1.00
10192;DHT22;17580;50.850;4.504;2023-03-01T10:27:52;16.00;1.00
10192;DHT22;17580;50.850;4.504;2023-03-01T10:30:22;16.40;1.00
10192;DHT22;17580;50.850;4.504;2023-03-01T10:32:51;15.90;1.00
10192;DHT22;17580;50.850;4.504;2023-03-01T10:35:22;16.00;1.00
10192;DHT22;17580;50.850;4.504;2023-03-01T10:38:03;16.70;1.00
10192;DHT22;17580;50.850;4.504;2023-03-01T10:40:31;15.90;1.00
10192;DHT22;17580;50.850;4.504;2023-03-01T10:43:00;15.80;1.00
10192;DHT22;17580;50.850;4.504;2023-03-01T10:45:33;15.90;1.00
10192;DHT22;17580;50.850;4.504;2023-03-01T10:48:12;16.40;1.00
10192;DHT22;17580;50.850;4.504;2023-03-01T10:50:42;15.80;1.00
10192;DHT22;17580;50.850;4.504;2023-03-01T10:53:25;16.20;1.00
10192;DHT22;17580;50.850;4.504;2023-03-01T10:55:58;16.50;1.00
10192;DHT22;17580;50.850;4.504;2023-03-01T10:58:26;16.50;1.00
10192;DHT22;17580;50.850;4.504;2023-03-01T11:00:55;16.80;1.00
10192;DHT22;17580;50.850;4.504;2023-03-01T11:03:25;16.00;1.00
10192;DHT22;17580;50.850;4.504;2023-03-01T11:05:59;16.10;1.00
10192;DHT22;17580;50.850;4.504;2023-03-01T11:08:34;16.50;1.00
10192;DHT22;17580;50.850;4.504;2023-03-01T11:11:20;17.10;1.00
10192;DHT22;17580;50.850;4.504;2023-03-01T11:13:58;17.50;1.00
10192;DHT22;17580;50.850;4.504;2023-03-01T11:16:34;17.60;1.00
10192;DHT22;17580;50.850;4.504;2023-03-01T11:19:17;17.30;1.00
10192;DHT22;17580;50.850;4.504;2023-03-01T11:21:54;16.70;1.00
10192;DHT22;17580;50.850;4.504;2023-03-01T11:24:27;16.20;1.00
10192;DHT22;17580;50.850;4.504;2023-03-01T11:26:56;16.60;1.00
10192;DHT22;17580;50.850;4.504;2023-03-01T11:29:32;16.40;1.00
10192;DHT22;17580;50.850;4.504;2023-03-01T11:32:04;15.90;1.00
10192;DHT22;17580;50.850;4.504;2023-03-01T11:34:39;15.90;1.00
10192;DHT22;17580;50.850;4.504;2023-03-01T11:37:26;15.90;1.00
10192;DHT22;17580;50.850;4.504;2023-03-01T11:39:59;16.00;1.00
10192;DHT22;17580;50.850;4.504;2023-03-01T11:45:29;16.50;1.00
10192;DHT22;17580;50.850;4.504;2023-03-01T11:48:17;16.90;1.00
10192;DHT22;17580;50.850;4.504;2023-03-01T11:50:52;17.10;1.00
10192;DHT22;17580;50.850;4.504;2023-03-01T11:53:34;17.10;1.00
10192;DHT22;17580;50.850;4.504;2023-03-01T11:56:16;17.00;1.00
10192;DHT22;17580;50.850;4.504;2023-03-01T12:01:53;17.40;1.00
10192;DHT22;17580;50.850;4.504;2023-03-01T12:04:59;16.80;1.00
10192;DHT22;17580;50.850;4.504;2023-03-01T12:07:37;16.40;1.00
10192;DHT22;17580;50.850;4.504;2023-03-01T12:10:22;16.00;1.00
10192;DHT22;17580;50.850;4.504;2023-03-01T12:13:12;15.90;1.00
10192;DHT22;17580;50.850;4.504;2023-03-01T12:16:01;16.20;1.00
10192;DHT22;17580;50.850;4.504;2023-03-01T12:21:37;15.90;1.00
10192;DHT22;17580;50.850;4.504;2023-03-01T12:24:21;15.90;1.00
10192;DHT22;17580;50.850;4.504;2023-03-01T12:26:59;15.50;1.00
10192;DHT22;17580;50.850;4.504;2023-03-01T12:29:32;15.80;1.00
10192;DHT22;17580;50.850;4.504;2023-03-01T12:32:10;15.80;1.00
10192;DHT22;17580;50.850;4.504;2023-03-01T12:34:56;15.90;1.00
10192;DHT22;17580;50.850;4.504;2023-03-01T12:37:36;15.40;1.00
10192;DHT22;17580;50.850;4.504;2023-03-01T12:40:23;15.10;1.00
10192;DHT22;17580;50.850;4.504;2023-03-01T12:43:06;15.00;1.00
10192;DHT22;17580;50.850;4.504;2023-03-01T12:45:44;15.30;1.00
10192;DHT22;17580;50.850;4.504;2023-03-01T12:48:24;15.50;1.00
10192;DHT22;17580;50.850;4.504;2023-03-01T12:51:01;15.20;1.00
10192;DHT22;17580;50.850;4.504;2023-03-01T12:53:30;15.00;1.00
10192;DHT22;17580;50.850;4.504;2023-03-01T12:56:01;14.80;1.00
10192;DHT22;17580;50.850;4.504;2023-03-01T12:58:32;14.50;1.00
10192;DHT22;17580;50.850;4.504;2023-03-01T13:01:16;14.80;1.00
10192;DHT22;17580;50.850;4.504;2023-03-01T13:04:11;15.00;1.00
10192;DHT22;17580;50.850;4.504;2023-03-01T13:06:44;15.60;1.00
10192;DHT22;17580;50.850;4.504;2023-03-01T13:09:19;15.40;1.00
10192;DHT22;17580;50.850;4.504;2023-03-01T13:11:51;14.90;1.00
10192;DHT22;17580;50.850;4.504;2023-03-01T13:14:42;14.50;1.00
10192;DHT22;17580;50.850;4.504;2023-03-01T13:17:29;14.80;1.00
10192;DHT22;17580;50.850;4.504;2023-03-01T13:19:57;14.10;1.00
10192;DHT22;17580;50.850;4.504;2023-03-01T13:22:27;14.50;1.00
10192;DHT22;17580;50.850;4.504;2023-03-01T13:25:02;14.40;1.00
10192;DHT22;17580;50.850;4.504;2023-03-01T13:27:29;14.30;1.00
10192;DHT22;17580;50.850;4.504;2023-03-01T13:30:00;14.10;1.00
10192;DHT22;17580;50.850;4.504;2023-03-01T13:32:31;14.10;1.00
10192;DHT22;17580;50.850;4.504;2023-03-01T13:35:00;14.40;1.00
10192;DHT22;17580;50.850;4.504;2023-03-01T13:37:30;14.50;1.00
10192;DHT22;17580;50.850;4.504;2023-03-01T13:39:59;14.40;1.00
10192;DHT22;17580;50.850;4.504;2023-03-01T13:42:39;14.10;1.00
10192;DHT22;17580;50.850;4.504;2023-03-01T13:45:20;13.80;1.00
10192;DHT22;17580;50.850;4.504;2023-03-01T13:47:52;13.50;1.00
10192;DHT22;17580;50.850;4.504;2023-03-01T13:50:23;13.20;1.00
10192;DHT22;17580;50.850;4.504;2023-03-01T13:52:54;13.10;1.00
10192;DHT22;17580;50.850;4.504;2023-03-01T13:55:32;13.20;1.00
10192;DHT22;17580;50.850;4.504;2023-03-01T13:58:04;13.20;1.00
10192;DHT22;17580;50.850;4.504;2023-03-01T14:00:35;13.20;1.00
10192;DHT22;17580;50.850;4.504;2023-03-01T14:03:14;12.80;1.00
10192;DHT22;17580;50.850;4.504;2023-03-01T14:05:43;12.30;1.00
10192;DHT22;17580;50.850;4.504;2023-03-01T14:08:22;12.00;1.00
10192;DHT22;17580;50.850;4.504;2023-03-01T14:14:41;11.00;1.00
10192;DHT22;17580;50.850;4.504;2023-03-01T14:20:14;10.60;1.00
10192;DHT22;17580;50.850;4.504;2023-03-01T14:22:43;10.30;1.00
10192;DHT22;17580;50.850;4.504;2023-03-01T14:25:28;10.30;1.00
10192;DHT22;17580;50.850;4.504;2023-03-01T14:28:03;10.40;1.00
10192;DHT22;17580;50.850;4.504;2023-03-01T14:30:34;10.50;1.00
10192;DHT22;17580;50.850;4.504;2023-03-01T14:33:05;10.20;1.00
10192;DHT22;17580;50.850;4.504;2023-03-01T14:35:34;10.20;1.00
10192;DHT22;17580;50.850;4.504;2023-03-01T14:38:02;10.20;1.00
10192;DHT22;17580;50.850;4.504;2023-03-01T14:40:32;10.40;1.00
10192;DHT22;17580;50.850;4.504;2023-03-01T14:43:00;10.30;1.00
10192;DHT22;17580;50.850;4.504;2023-03-01T14:45:29;10.30;1.00
10192;DHT22;17580;50.850;4.504;2023-03-01T14:48:00;10.20;1.00
10192;DHT22;17580;50.850;4.504;2023-03-01T14:50:31;10.00;1.00
10192;DHT22;17580;50.850;4.504;2023-03-01T14:53:00;10.00;1.00
10192;DHT22;17580;50.850;4.504;2023-03-01T14:55:31;10.20;1.00
10192;DHT22;17580;50.850;4.504;2023-03-01T14:58:03;10.00;1.00
10192;DHT22;17580;50.850;4.504;2023-03-01T15:00:31;10.00;1.00
10192;DHT22;17580;50.850;4.504;2023-03-01T15:03:06;9.90;1.00
10192;DHT22;17580;50.850;4.504;2023-03-01T15:05:41;9.80;1.00
10192;DHT22;17580;50.850;4.504;2023-03-01T15:08:18;9.90;1.00
10192;DHT22;17580;50.850;4.504;2023-03-01T15:11:02;9.70;1.00
10192;DHT22;17580;50.850;4.504;2023-03-01T15:13:31;9.60;1.00
10192;DHT22;17580;50.850;4.504;2023-03-01T15:16:04;9.50;1.00
10192;DHT22;17580;50.850;4.504;2023-03-01T15:18:32;9.40;1.00
10192;DHT22;17580;50.850;4.504;2023-03-01T15:21:13;9.60;1.00
10192;DHT22;17580;50.850;4.504;2023-03-01T15:23:41;9.70;1.00
10192;DHT22;17580;50.850;4.504;2023-03-01T15:26:22;9.30;1.00
10192;DHT22;17580;50.850;4.504;2023-03-01T15:28:52;9.20;1.00
10192;DHT22;17580;50.850;4.504;2023-03-01T15:31:22;9.10;1.00
10192;DHT22;17580;50.850;4.504;2023-03-01T15:33:49;9.00;1.00
10192;DHT22;17580;50.850;4.504;2023-03-01T15:36:41;9.10;1.00
10192;DHT22;17580;50.850;4.504;2023-03-01T15:39:36;9.00;1.00
10192;DHT22;17580;50.850;4.504;2023-03-01T15:42:10;9.00;1.00
10192;DHT22;17580;50.850;4.504;2023-03-01T15:44:39;9.00;1.00
10192;DHT22;17580;50.850;4.504;2023-03-01T15:47:22;9.10;1.00
10192;DHT22;17580;50.850;4.504;2023-03-01T15:49:52;9.00;1.00
10192;DHT22;17580;50.850;4.504;2023-03-01T15:52:23;8.80;1.00
10192;DHT22;17580;50.850;4.504;2023-03-01T15:54:55;8.70;1.00
10192;DHT22;17580;50.850;4.504;2023-03-01T15:57:22;8.60;1.00
10192;DHT22;17580;50.850;4.504;2023-03-01T15:59:49;8.50;1.00
10192;DHT22;17580;50.850;4.504;2023-03-01T16:02:16;8.50;1.00
10192;DHT22;17580;50.850;4.504;2023-03-01T16:04:46;8.50;1.00
10192;DHT22;17580;50.850;4.504;2023-03-01T16:07:14;8.40;1.00
10192;DHT22;17580;50.850;4.504;2023-03-01T16:09:42;8.30;1.00
10192;DHT22;17580;50.850;4.504;2023-03-01T16:12:13;8.30;1.00
10192;DHT22;17580;50.850;4.504;2023-03-01T16:14:41;8.40;1.00
10192;DHT22;17580;50.850;4.504;2023-03-01T16:17:08;8.20;1.00
10192;DHT22;17580;50.850;4.504;2023-03-01T16:19:35;8.10;1.00
10192;DHT22;17580;50.850;4.504;2023-03-01T16:22:03;8.00;1.00